sensor_id;sensor_type;location;lat;lon;timestamp;temperature;humidity
13808;DHT22;40769;51.512;5.494;2023-06-26T00:01:42;25.70;99.90
13808;DHT22;40769;51.512;5.494;2023-06-26T00:04:08;25.70;99.90
13808;DHT22;40769;51.512;5.494;2023-06-26T00:06:39;25.70;99.90
13808;DHT22;40769;51.512;5.494;2023-06-26T00:09:05;25.60;99.90
13808;DHT22;40769;51.512;5.494;2023-06-26T00:11:31;25.60;99.90
13808;DHT22;40769;51.512;5.494;2023-06-26T00:13:59;25.50;99.90
13808;DHT22;40769;51.512;5.494;2023-06-26T00:16:26;25.50;99.90
13808;DHT22;40769;51.512;5.494;2023-06-26T00:18:52;25.40;99.90
13808;DHT22;40769;51.512;5.494;2023-06-26T00:21:18;25.40;99.90
13808;DHT22;40769;51.512;5.494;2023-06-26T00:23:44;25.40;99.90
13808;DHT22;40769;51.512;5.494;2023-06-26T00:26:11;25.40;99.90
13808;DHT22;40769;51.512;5.494;2023-06-26T00:28:36;25.40;99.90
13808;DHT22;40769;51.512;5.494;2023-06-26T00:31:02;25.40;99.90
13808;DHT22;40769;51.512;5.494;2023-06-26T00:33:28;25.40;99.90
13808;DHT22;40769;51.512;5.494;2023-06-26T00:35:53;25.40;99.90
13808;DHT22;40769;51.512;5.494;2023-06-26T00:38:19;25.40;99.90
13808;DHT22;40769;51.512;5.494;2023-06-26T00:40:45;25.40;99.90
13808;DHT22;40769;51.512;5.494;2023-06-26T00:43:10;25.40;99.90
13808;DHT22;40769;51.512;5.494;2023-06-26T00:45:36;25.40;99.90
13808;DHT22;40769;51.512;5.494;2023-06-26T00:48:02;25.40;99.90
13808;DHT22;40769;51.512;5.494;2023-06-26T00:50:28;25.40;99.90
13808;DHT22;40769;51.512;5.494;2023-06-26T00:52:54;25.40;99.90
13808;DHT22;40769;51.512;5.494;2023-06-26T00:55:26;25.30;99.90
13808;DHT22;40769;51.512;5.494;2023-06-26T00:57:51;25.30;99.90
13808;DHT22;40769;51.512;5.494;2023-06-26T01:00:17;25.30;99.90
13808;DHT22;40769;51.512;5.494;2023-06-26T01:02:43;25.30;99.90
13808;DHT22;40769;51.512;5.494;2023-06-26T01:05:09;25.20;99.90
13808;DHT22;40769;51.512;5.494;2023-06-26T01:07:38;25.20;99.90
13808;DHT22;40769;51.512;5.494;2023-06-26T01:10:07;25.10;99.90
13808;DHT22;40769;51.512;5.494;2023-06-26T01:12:34;25.10;99.90
13808;DHT22;40769;51.512;5.494;2023-06-26T01:15:02;25.10;99.90
13808;DHT22;40769;51.512;5.494;2023-06-26T01:17:28;25.00;99.90
13808;DHT22;40769;51.512;5.494;2023-06-26T01:19:58;25.00;99.90
13808;DHT22;40769;51.512;5.494;2023-06-26T01:22:31;24.90;99.90
13808;DHT22;40769;51.512;5.494;2023-06-26T01:25:02;24.90;99.90
13808;DHT22;40769;51.512;5.494;2023-06-26T01:27:30;24.80;99.90
13808;DHT22;40769;51.512;5.494;2023-06-26T01:29:59;24.80;99.90
13808;DHT22;40769;51.512;5.494;2023-06-26T01:32:26;24.80;99.90
13808;DHT22;40769;51.512;5.494;2023-06-26T01:34:52;24.70;99.90
13808;DHT22;40769;51.512;5.494;2023-06-26T01:37:18;24.70;99.90
13808;DHT22;40769;51.512;5.494;2023-06-26T01:39:43;24.60;99.90
13808;DHT22;40769;51.512;5.494;2023-06-26T01:42:09;24.60;99.90
13808;DHT22;40769;51.512;5.494;2023-06-26T01:44:37;24.50;99.90
13808;DHT22;40769;51.512;5.494;2023-06-26T01:47:09;24.50;99.90
13808;DHT22;40769;51.512;5.494;2023-06-26T01:49:49;24.40;99.90
13808;DHT22;40769;51.512;5.494;2023-06-26T01:52:40;23.90;99.90
13808;DHT22;40769;51.512;5.494;2023-06-26T01:55:20;24.30;99.90
13808;DHT22;40769;51.512;5.494;2023-06-26T01:57:47;24.30;99.90
13808;DHT22;40769;51.512;5.494;2023-06-26T02:00:18;24.30;99.90
13808;DHT22;40769;51.512;5.494;2023-06-26T02:02:44;24.20;99.90
13808;DHT22;40769;51.512;5.494;2023-06-26T02:05:11;24.20;99.90
13808;DHT22;40769;51.512;5.494;2023-06-26T02:07:37;24.20;99.90
13808;DHT22;40769;51.512;5.494;2023-06-26T02:10:03;24.20;99.90
13808;DHT22;40769;51.512;5.494;2023-06-26T02:12:28;24.20;99.90
13808;DHT22;40769;51.512;5.494;2023-06-26T02:14:54;24.10;99.90
13808;DHT22;40769;51.512;5.494;2023-06-26T02:17:19;24.10;99.90
13808;DHT22;40769;51.512;5.494;2023-06-26T02:19:45;24.00;99.90
13808;DHT22;40769;51.512;5.494;2023-06-26T02:22:20;23.90;99.90
13808;DHT22;40769;51.512;5.494;2023-06-26T02:24:46;23.90;99.90
13808;DHT22;40769;51.512;5.494;2023-06-26T02:27:12;23.80;99.90
13808;DHT22;40769;51.512;5.494;2023-06-26T02:29:38;23.80;99.90
13808;DHT22;40769;51.512;5.494;2023-06-26T02:32:04;23.70;99.90
13808;DHT22;40769;51.512;5.494;2023-06-26T02:34:30;23.70;99.90
13808;DHT22;40769;51.512;5.494;2023-06-26T02:36:56;23.60;99.90
13808;DHT22;40769;51.512;5.494;2023-06-26T02:39:23;23.60;99.90
13808;DHT22;40769;51.512;5.494;2023-06-26T02:41:49;23.50;99.90
13808;DHT22;40769;51.512;5.494;2023-06-26T02:44:15;23.50;99.90
13808;DHT22;40769;51.512;5.494;2023-06-26T02:46:40;23.40;99.90
13808;DHT22;40769;51.512;5.494;2023-06-26T02:49:06;23.40;99.90
13808;DHT22;40769;51.512;5.494;2023-06-26T02:51:33;23.30;99.90
13808;DHT22;40769;51.512;5.494;2023-06-26T02:53:59;23.30;99.90
13808;DHT22;40769;51.512;5.494;2023-06-26T02:56:24;23.20;99.90
13808;DHT22;40769;51.512;5.494;2023-06-26T02:58:54;23.10;99.90
13808;DHT22;40769;51.512;5.494;2023-06-26T03:01:20;23.10;99.90
13808;DHT22;40769;51.512;5.494;2023-06-26T03:03:46;23.00;99.90
13808;DHT22;40769;51.512;5.494;2023-06-26T03:06:12;23.00;99.90
13808;DHT22;40769;51.512;5.494;2023-06-26T03:08:38;22.90;99.90
13808;DHT22;40769;51.512;5.494;2023-06-26T03:11:06;22.90;99.90
13808;DHT22;40769;51.512;5.494;2023-06-26T03:13:36;22.80;99.90
13808;DHT22;40769;51.512;5.494;2023-06-26T03:16:03;22.80;99.90
13808;DHT22;40769;51.512;5.494;2023-06-26T03:18:28;22.80;99.90
13808;DHT22;40769;51.512;5.494;2023-06-26T03:20:55;22.80;99.90
13808;DHT22;40769;51.512;5.494;2023-06-26T03:23:21;22.70;99.90
13808;DHT22;40769;51.512;5.494;2023-06-26T03:25:48;22.70;99.90
13808;DHT22;40769;51.512;5.494;2023-06-26T03:28:13;22.60;99.90
13808;DHT22;40769;51.512;5.494;2023-06-26T03:30:39;22.60;99.90
13808;DHT22;40769;51.512;5.494;2023-06-26T03:33:05;22.60;99.90
13808;DHT22;40769;51.512;5.494;2023-06-26T03:35:30;22.60;99.90
13808;DHT22;40769;51.512;5.494;2023-06-26T03:37:57;22.50;99.90
13808;DHT22;40769;51.512;5.494;2023-06-26T03:40:23;22.50;99.90
13808;DHT22;40769;51.512;5.494;2023-06-26T03:42:52;22.50;99.90
13808;DHT22;40769;51.512;5.494;2023-06-26T03:45:18;22.40;99.90
13808;DHT22;40769;51.512;5.494;2023-06-26T03:47:44;22.40;99.90
13808;DHT22;40769;51.512;5.494;2023-06-26T03:50:12;22.30;99.90
13808;DHT22;40769;51.512;5.494;2023-06-26T03:52:38;22.30;99.90
13808;DHT22;40769;51.512;5.494;2023-06-26T03:55:04;22.30;99.90
13808;DHT22;40769;51.512;5.494;2023-06-26T03:57:30;22.30;99.90
13808;DHT22;40769;51.512;5.494;2023-06-26T03:59:55;22.20;99.90
13808;DHT22;40769;51.512;5.494;2023-06-26T04:02:21;22.20;99.90
13808;DHT22;40769;51.512;5.494;2023-06-26T04:04:47;22.20;99.90
13808;DHT22;40769;51.512;5.494;2023-06-26T04:07:12;22.20;99.90
13808;DHT22;40769;51.512;5.494;2023-06-26T04:09:38;22.20;99.90
13808;DHT22;40769;51.512;5.494;2023-06-26T04:12:04;22.10;99.90
13808;DHT22;40769;51.512;5.494;2023-06-26T04:14:30;22.10;99.90
13808;DHT22;40769;51.512;5.494;2023-06-26T04:16:55;22.10;99.90
13808;DHT22;40769;51.512;5.494;2023-06-26T04:19:23;22.10;99.90
13808;DHT22;40769;51.512;5.494;2023-06-26T04:21:48;22.20;99.90
13808;DHT22;40769;51.512;5.494;2023-06-26T04:24:14;22.10;99.90
13808;DHT22;40769;51.512;5.494;2023-06-26T04:26:40;22.10;99.90
13808;DHT22;40769;51.512;5.494;2023-06-26T04:29:09;22.10;99.90
13808;DHT22;40769;51.512;5.494;2023-06-26T04:31:34;22.10;99.90
13808;DHT22;40769;51.512;5.494;2023-06-26T04:34:00;22.20;99.90
13808;DHT22;40769;51.512;5.494;2023-06-26T04:36:26;22.20;99.90
13808;DHT22;40769;51.512;5.494;2023-06-26T04:38:55;22.20;99.90
13808;DHT22;40769;51.512;5.494;2023-06-26T04:41:24;22.20;99.90
13808;DHT22;40769;51.512;5.494;2023-06-26T04:43:49;22.30;99.90
13808;DHT22;40769;51.512;5.494;2023-06-26T04:46:15;22.30;99.90
13808;DHT22;40769;51.512;5.494;2023-06-26T04:48:41;22.40;99.90
13808;DHT22;40769;51.512;5.494;2023-06-26T04:51:06;22.40;99.90
13808;DHT22;40769;51.512;5.494;2023-06-26T04:53:32;22.50;99.90
13808;DHT22;40769;51.512;5.494;2023-06-26T04:55:58;22.50;99.90
13808;DHT22;40769;51.512;5.494;2023-06-26T04:58:23;22.60;99.90
13808;DHT22;40769;51.512;5.494;2023-06-26T05:00:49;22.70;99.90
13808;DHT22;40769;51.512;5.494;2023-06-26T05:03:16;22.70;99.90
13808;DHT22;40769;51.512;5.494;2023-06-26T05:05:43;22.70;99.90
13808;DHT22;40769;51.512;5.494;2023-06-26T05:08:18;22.70;99.90
13808;DHT22;40769;51.512;5.494;2023-06-26T05:10:44;22.80;99.90
13808;DHT22;40769;51.512;5.494;2023-06-26T05:13:10;22.80;99.90
13808;DHT22;40769;51.512;5.494;2023-06-26T05:15:36;22.80;99.90
13808;DHT22;40769;51.512;5.494;2023-06-26T05:18:02;22.90;99.90
13808;DHT22;40769;51.512;5.494;2023-06-26T05:20:28;22.90;99.90
13808;DHT22;40769;51.512;5.494;2023-06-26T05:22:54;23.00;99.90
13808;DHT22;40769;51.512;5.494;2023-06-26T05:25:20;23.00;99.90
13808;DHT22;40769;51.512;5.494;2023-06-26T05:27:47;23.10;99.90
13808;DHT22;40769;51.512;5.494;2023-06-26T05:30:13;23.10;99.90
13808;DHT22;40769;51.512;5.494;2023-06-26T05:32:40;23.10;99.90
13808;DHT22;40769;51.512;5.494;2023-06-26T05:35:06;23.10;99.90
13808;DHT22;40769;51.512;5.494;2023-06-26T05:37:33;23.10;99.90
13808;DHT22;40769;51.512;5.494;2023-06-26T05:40:00;23.20;99.90
13808;DHT22;40769;51.512;5.494;2023-06-26T05:42:29;23.10;99.90
13808;DHT22;40769;51.512;5.494;2023-06-26T05:44:55;23.20;99.90
13808;DHT22;40769;51.512;5.494;2023-06-26T05:47:21;23.20;99.90
13808;DHT22;40769;51.512;5.494;2023-06-26T05:49:47;23.30;99.90
13808;DHT22;40769;51.512;5.494;2023-06-26T05:52:13;23.20;99.90
13808;DHT22;40769;51.512;5.494;2023-06-26T05:54:39;23.20;99.90
13808;DHT22;40769;51.512;5.494;2023-06-26T05:57:05;23.20;99.90
13808;DHT22;40769;51.512;5.494;2023-06-26T05:59:32;23.20;99.90
13808;DHT22;40769;51.512;5.494;2023-06-26T06:01:58;23.20;99.90
13808;DHT22;40769;51.512;5.494;2023-06-26T06:04:23;23.20;99.90
13808;DHT22;40769;51.512;5.494;2023-06-26T06:06:49;23.20;99.90
13808;DHT22;40769;51.512;5.494;2023-06-26T06:09:18;23.20;99.90
13808;DHT22;40769;51.512;5.494;2023-06-26T06:11:43;23.20;99.90
13808;DHT22;40769;51.512;5.494;2023-06-26T06:14:09;23.30;99.90
13808;DHT22;40769;51.512;5.494;2023-06-26T06:16:35;23.30;99.90
13808;DHT22;40769;51.512;5.494;2023-06-26T06:19:00;23.40;99.90
13808;DHT22;40769;51.512;5.494;2023-06-26T06:21:28;23.60;99.90
13808;DHT22;40769;51.512;5.494;2023-06-26T06:23:54;23.70;99.90
13808;DHT22;40769;51.512;5.494;2023-06-26T06:26:19;23.90;99.90
13808;DHT22;40769;51.512;5.494;2023-06-26T06:28:45;24.10;99.90
13808;DHT22;40769;51.512;5.494;2023-06-26T06:31:11;24.20;99.90
13808;DHT22;40769;51.512;5.494;2023-06-26T06:33:36;24.30;99.90
13808;DHT22;40769;51.512;5.494;2023-06-26T06:36:02;24.40;99.90
13808;DHT22;40769;51.512;5.494;2023-06-26T06:38:28;24.50;99.90
13808;DHT22;40769;51.512;5.494;2023-06-26T06:40:53;24.60;99.90
13808;DHT22;40769;51.512;5.494;2023-06-26T06:43:19;24.60;99.90
13808;DHT22;40769;51.512;5.494;2023-06-26T06:45:45;24.80;99.90
13808;DHT22;40769;51.512;5.494;2023-06-26T06:48:10;24.90;99.90
13808;DHT22;40769;51.512;5.494;2023-06-26T06:50:36;25.10;99.90
13808;DHT22;40769;51.512;5.494;2023-06-26T06:53:02;25.20;99.90
13808;DHT22;40769;51.512;5.494;2023-06-26T06:55:28;25.40;99.90
13808;DHT22;40769;51.512;5.494;2023-06-26T06:57:53;25.60;99.90
13808;DHT22;40769;51.512;5.494;2023-06-26T07:00:19;25.70;99.90
13808;DHT22;40769;51.512;5.494;2023-06-26T07:02:45;25.80;99.90
13808;DHT22;40769;51.512;5.494;2023-06-26T07:05:11;26.00;99.90
13808;DHT22;40769;51.512;5.494;2023-06-26T07:07:38;26.10;99.90
13808;DHT22;40769;51.512;5.494;2023-06-26T07:10:10;26.20;99.90
13808;DHT22;40769;51.512;5.494;2023-06-26T07:12:36;26.40;99.90
13808;DHT22;40769;51.512;5.494;2023-06-26T07:15:03;26.50;99.90
13808;DHT22;40769;51.512;5.494;2023-06-26T07:17:30;26.70;99.90
13808;DHT22;40769;51.512;5.494;2023-06-26T07:19:56;26.80;99.90
13808;DHT22;40769;51.512;5.494;2023-06-26T07:22:23;27.00;99.90
13808;DHT22;40769;51.512;5.494;2023-06-26T07:24:48;27.10;99.90
13808;DHT22;40769;51.512;5.494;2023-06-26T07:27:17;27.20;99.90
13808;DHT22;40769;51.512;5.494;2023-06-26T07:29:44;27.20;99.90
13808;DHT22;40769;51.512;5.494;2023-06-26T07:32:10;27.10;99.90
13808;DHT22;40769;51.512;5.494;2023-06-26T07:34:36;27.00;99.90
13808;DHT22;40769;51.512;5.494;2023-06-26T07:37:01;26.90;99.90
13808;DHT22;40769;51.512;5.494;2023-06-26T07:39:27;26.90;99.90
13808;DHT22;40769;51.512;5.494;2023-06-26T07:41:53;26.80;99.90
13808;DHT22;40769;51.512;5.494;2023-06-26T07:44:18;26.80;99.90
13808;DHT22;40769;51.512;5.494;2023-06-26T07:46:44;26.80;99.90
13808;DHT22;40769;51.512;5.494;2023-06-26T07:49:10;26.70;99.90
13808;DHT22;40769;51.512;5.494;2023-06-26T07:51:36;26.80;99.90
13808;DHT22;40769;51.512;5.494;2023-06-26T07:54:02;26.70;99.90
13808;DHT22;40769;51.512;5.494;2023-06-26T07:56:27;26.70;99.90
13808;DHT22;40769;51.512;5.494;2023-06-26T07:58:53;26.60;99.90
13808;DHT22;40769;51.512;5.494;2023-06-26T08:01:19;26.60;99.90
13808;DHT22;40769;51.512;5.494;2023-06-26T08:03:44;26.70;99.90
13808;DHT22;40769;51.512;5.494;2023-06-26T08:06:10;26.80;99.90
13808;DHT22;40769;51.512;5.494;2023-06-26T08:08:36;26.90;99.90
13808;DHT22;40769;51.512;5.494;2023-06-26T08:11:01;27.00;99.90
13808;DHT22;40769;51.512;5.494;2023-06-26T08:13:27;27.10;99.90
13808;DHT22;40769;51.512;5.494;2023-06-26T08:15:53;27.30;99.90
13808;DHT22;40769;51.512;5.494;2023-06-26T08:18:19;27.30;99.90
13808;DHT22;40769;51.512;5.494;2023-06-26T08:20:44;27.30;99.90
13808;DHT22;40769;51.512;5.494;2023-06-26T08:23:10;27.30;99.90
13808;DHT22;40769;51.512;5.494;2023-06-26T08:25:35;27.40;99.90
13808;DHT22;40769;51.512;5.494;2023-06-26T08:28:01;27.40;99.90
13808;DHT22;40769;51.512;5.494;2023-06-26T08:30:27;27.40;99.90
13808;DHT22;40769;51.512;5.494;2023-06-26T08:32:56;27.40;99.90
13808;DHT22;40769;51.512;5.494;2023-06-26T08:35:22;27.30;99.90
13808;DHT22;40769;51.512;5.494;2023-06-26T08:37:48;27.30;99.90
13808;DHT22;40769;51.512;5.494;2023-06-26T08:40:17;26.40;99.90
13808;DHT22;40769;51.512;5.494;2023-06-26T08:42:43;27.30;99.90
13808;DHT22;40769;51.512;5.494;2023-06-26T08:45:09;27.40;99.90
13808;DHT22;40769;51.512;5.494;2023-06-26T08:47:35;27.40;99.90
13808;DHT22;40769;51.512;5.494;2023-06-26T08:50:07;27.60;99.90
13808;DHT22;40769;51.512;5.494;2023-06-26T08:52:46;27.70;99.90
13808;DHT22;40769;51.512;5.494;2023-06-26T08:55:18;27.90;99.90
13808;DHT22;40769;51.512;5.494;2023-06-26T08:57:44;28.00;99.90
13808;DHT22;40769;51.512;5.494;2023-06-26T09:00:11;28.20;99.90
13808;DHT22;40769;51.512;5.494;2023-06-26T09:02:37;28.30;99.90
13808;DHT22;40769;51.512;5.494;2023-06-26T09:05:03;28.30;99.90
13808;DHT22;40769;51.512;5.494;2023-06-26T09:07:29;28.30;99.90
13808;DHT22;40769;51.512;5.494;2023-06-26T09:09:55;28.30;99.90
13808;DHT22;40769;51.512;5.494;2023-06-26T09:12:21;28.30;99.90
13808;DHT22;40769;51.512;5.494;2023-06-26T09:14:59;28.30;99.90
13808;DHT22;40769;51.512;5.494;2023-06-26T09:17:38;28.40;99.90
13808;DHT22;40769;51.512;5.494;2023-06-26T09:20:05;28.30;99.90
13808;DHT22;40769;51.512;5.494;2023-06-26T09:22:37;28.20;99.90
13808;DHT22;40769;51.512;5.494;2023-06-26T09:25:05;28.20;99.90
13808;DHT22;40769;51.512;5.494;2023-06-26T09:27:34;28.30;99.90
13808;DHT22;40769;51.512;5.494;2023-06-26T09:30:02;28.40;99.90
13808;DHT22;40769;51.512;5.494;2023-06-26T09:32:28;28.50;99.90
13808;DHT22;40769;51.512;5.494;2023-06-26T09:34:54;28.70;99.90
13808;DHT22;40769;51.512;5.494;2023-06-26T09:37:23;29.00;99.90
13808;DHT22;40769;51.512;5.494;2023-06-26T09:39:50;29.20;99.90
13808;DHT22;40769;51.512;5.494;2023-06-26T09:42:16;29.40;99.90
13808;DHT22;40769;51.512;5.494;2023-06-26T09:44:45;29.60;99.60
13808;DHT22;40769;51.512;5.494;2023-06-26T09:47:12;29.70;97.20
13808;DHT22;40769;51.512;5.494;2023-06-26T09:49:41;29.70;96.00
13808;DHT22;40769;51.512;5.494;2023-06-26T09:52:08;29.70;94.90
13808;DHT22;40769;51.512;5.494;2023-06-26T09:54:34;29.60;94.90
13808;DHT22;40769;51.512;5.494;2023-06-26T09:57:16;29.50;94.20
13808;DHT22;40769;51.512;5.494;2023-06-26T09:59:43;29.30;93.60
13808;DHT22;40769;51.512;5.494;2023-06-26T10:02:12;29.30;95.10
13808;DHT22;40769;51.512;5.494;2023-06-26T10:04:38;29.40;95.10
13808;DHT22;40769;51.512;5.494;2023-06-26T10:07:18;30.10;95.00
13808;DHT22;40769;51.512;5.494;2023-06-26T10:09:46;29.60;92.10
13808;DHT22;40769;51.512;5.494;2023-06-26T10:12:29;29.70;93.70
13808;DHT22;40769;51.512;5.494;2023-06-26T10:14:58;29.90;91.40
13808;DHT22;40769;51.512;5.494;2023-06-26T10:17:32;30.10;92.20
13808;DHT22;40769;51.512;5.494;2023-06-26T10:19:58;30.30;92.60
13808;DHT22;40769;51.512;5.494;2023-06-26T10:22:29;30.90;91.40
13808;DHT22;40769;51.512;5.494;2023-06-26T10:24:59;30.50;89.90
13808;DHT22;40769;51.512;5.494;2023-06-26T10:27:29;30.60;89.80
13808;DHT22;40769;51.512;5.494;2023-06-26T10:29:59;30.60;89.80
13808;DHT22;40769;51.512;5.494;2023-06-26T10:32:29;30.80;87.90
13808;DHT22;40769;51.512;5.494;2023-06-26T10:34:56;30.90;88.90
13808;DHT22;40769;51.512;5.494;2023-06-26T10:37:44;31.00;88.00
13808;DHT22;40769;51.512;5.494;2023-06-26T10:40:10;31.00;76.70
13808;DHT22;40769;51.512;5.494;2023-06-26T10:42:38;30.90;81.10
13808;DHT22;40769;51.512;5.494;2023-06-26T10:45:19;30.80;79.40
13808;DHT22;40769;51.512;5.494;2023-06-26T10:47:48;30.60;76.40
13808;DHT22;40769;51.512;5.494;2023-06-26T10:50:20;30.40;77.30
13808;DHT22;40769;51.512;5.494;2023-06-26T10:53:25;30.20;76.00
13808;DHT22;40769;51.512;5.494;2023-06-26T10:55:58;29.90;74.90
13808;DHT22;40769;51.512;5.494;2023-06-26T10:58:32;29.90;74.70
13808;DHT22;40769;51.512;5.494;2023-06-26T11:01:22;29.80;76.00
13808;DHT22;40769;51.512;5.494;2023-06-26T11:06:27;29.90;77.60
13808;DHT22;40769;51.512;5.494;2023-06-26T11:11:58;30.00;74.50
13808;DHT22;40769;51.512;5.494;2023-06-26T11:14:26;30.10;73.70
13808;DHT22;40769;51.512;5.494;2023-06-26T11:16:57;30.20;76.00
13808;DHT22;40769;51.512;5.494;2023-06-26T11:19:25;30.20;75.80
13808;DHT22;40769;51.512;5.494;2023-06-26T11:21:53;30.30;76.50
13808;DHT22;40769;51.512;5.494;2023-06-26T11:24:23;30.40;76.20
13808;DHT22;40769;51.512;5.494;2023-06-26T11:26:49;30.50;73.60
13808;DHT22;40769;51.512;5.494;2023-06-26T11:29:15;30.50;74.30
13808;DHT22;40769;51.512;5.494;2023-06-26T11:31:42;30.60;73.90
13808;DHT22;40769;51.512;5.494;2023-06-26T11:34:12;30.70;72.80
13808;DHT22;40769;51.512;5.494;2023-06-26T11:36:39;30.70;71.70
13808;DHT22;40769;51.512;5.494;2023-06-26T11:39:06;30.80;73.10
13808;DHT22;40769;51.512;5.494;2023-06-26T11:41:36;30.90;73.90
13808;DHT22;40769;51.512;5.494;2023-06-26T11:44:07;30.90;72.30
13808;DHT22;40769;51.512;5.494;2023-06-26T11:46:35;31.00;71.00
13808;DHT22;40769;51.512;5.494;2023-06-26T11:49:06;31.00;70.80
13808;DHT22;40769;51.512;5.494;2023-06-26T11:51:33;31.00;70.10
13808;DHT22;40769;51.512;5.494;2023-06-26T11:54:01;31.00;70.60
13808;DHT22;40769;51.512;5.494;2023-06-26T11:56:28;31.00;68.90
13808;DHT22;40769;51.512;5.494;2023-06-26T12:01:36;30.80;69.10
13808;DHT22;40769;51.512;5.494;2023-06-26T12:04:06;30.80;68.20
13808;DHT22;40769;51.512;5.494;2023-06-26T12:06:37;30.90;69.00
13808;DHT22;40769;51.512;5.494;2023-06-26T12:09:05;31.00;67.30
13808;DHT22;40769;51.512;5.494;2023-06-26T12:11:32;31.10;68.50
13808;DHT22;40769;51.512;5.494;2023-06-26T12:13:59;31.20;69.70
13808;DHT22;40769;51.512;5.494;2023-06-26T12:16:25;31.20;69.00
13808;DHT22;40769;51.512;5.494;2023-06-26T12:18:51;31.30;68.80
13808;DHT22;40769;51.512;5.494;2023-06-26T12:24:04;31.50;67.60
13808;DHT22;40769;51.512;5.494;2023-06-26T12:26:30;31.50;69.20
13808;DHT22;40769;51.512;5.494;2023-06-26T12:29:10;31.50;68.80
13808;DHT22;40769;51.512;5.494;2023-06-26T12:31:43;31.40;67.80
13808;DHT22;40769;51.512;5.494;2023-06-26T12:34:13;31.30;68.00
13808;DHT22;40769;51.512;5.494;2023-06-26T12:36:44;31.10;68.10
13808;DHT22;40769;51.512;5.494;2023-06-26T12:39:13;31.00;68.20
13808;DHT22;40769;51.512;5.494;2023-06-26T12:41:55;30.80;68.50
13808;DHT22;40769;51.512;5.494;2023-06-26T12:44:24;30.80;67.80
13808;DHT22;40769;51.512;5.494;2023-06-26T12:46:57;30.80;68.50
13808;DHT22;40769;51.512;5.494;2023-06-26T12:49:42;31.00;68.30
13808;DHT22;40769;51.512;5.494;2023-06-26T12:52:15;31.00;66.70
13808;DHT22;40769;51.512;5.494;2023-06-26T12:54:44;31.10;68.60
13808;DHT22;40769;51.512;5.494;2023-06-26T12:57:13;31.20;68.50
13808;DHT22;40769;51.512;5.494;2023-06-26T12:59:42;31.30;66.40
13808;DHT22;40769;51.512;5.494;2023-06-26T13:02:08;31.50;67.10
13808;DHT22;40769;51.512;5.494;2023-06-26T13:04:34;31.60;66.30
13808;DHT22;40769;51.512;5.494;2023-06-26T13:07:13;31.70;65.60
13808;DHT22;40769;51.512;5.494;2023-06-26T13:09:39;31.70;63.80
13808;DHT22;40769;51.512;5.494;2023-06-26T13:12:10;31.60;64.50
13808;DHT22;40769;51.512;5.494;2023-06-26T13:14:36;31.40;64.60
13808;DHT22;40769;51.512;5.494;2023-06-26T13:17:01;31.20;64.90
13808;DHT22;40769;51.512;5.494;2023-06-26T13:19:27;30.90;65.10
13808;DHT22;40769;51.512;5.494;2023-06-26T13:21:53;30.70;65.70
13808;DHT22;40769;51.512;5.494;2023-06-26T13:24:19;30.50;66.10
13808;DHT22;40769;51.512;5.494;2023-06-26T13:26:44;30.40;65.50
13808;DHT22;40769;51.512;5.494;2023-06-26T13:29:10;30.30;65.40
13808;DHT22;40769;51.512;5.494;2023-06-26T13:31:36;30.30;65.60
13808;DHT22;40769;51.512;5.494;2023-06-26T13:34:02;30.30;65.40
13808;DHT22;40769;51.512;5.494;2023-06-26T13:36:31;30.30;65.90
13808;DHT22;40769;51.512;5.494;2023-06-26T13:38:59;30.30;65.30
13808;DHT22;40769;51.512;5.494;2023-06-26T13:41:25;30.40;65.10
13808;DHT22;40769;51.512;5.494;2023-06-26T13:43:54;30.30;65.00
13808;DHT22;40769;51.512;5.494;2023-06-26T13:46:20;30.30;65.30
13808;DHT22;40769;51.512;5.494;2023-06-26T13:48:46;30.30;65.40
13808;DHT22;40769;51.512;5.494;2023-06-26T13:51:12;30.30;65.70
13808;DHT22;40769;51.512;5.494;2023-06-26T13:53:38;30.40;65.10
13808;DHT22;40769;51.512;5.494;2023-06-26T13:56:04;30.40;65.10
13808;DHT22;40769;51.512;5.494;2023-06-26T13:58:30;30.40;65.50
13808;DHT22;40769;51.512;5.494;2023-06-26T14:00:58;30.40;66.20
13808;DHT22;40769;51.512;5.494;2023-06-26T14:03:23;30.50;66.50
13808;DHT22;40769;51.512;5.494;2023-06-26T14:05:49;30.70;65.40
13808;DHT22;40769;51.512;5.494;2023-06-26T14:08:15;30.80;64.30
13808;DHT22;40769;51.512;5.494;2023-06-26T14:10:40;30.80;64.30
13808;DHT22;40769;51.512;5.494;2023-06-26T14:13:06;30.90;64.30
13808;DHT22;40769;51.512;5.494;2023-06-26T14:15:34;31.00;64.60
13808;DHT22;40769;51.512;5.494;2023-06-26T14:18:06;31.10;64.80
13808;DHT22;40769;51.512;5.494;2023-06-26T14:20:35;31.10;64.10
13808;DHT22;40769;51.512;5.494;2023-06-26T14:23:04;31.10;63.90
13808;DHT22;40769;51.512;5.494;2023-06-26T14:25:30;31.00;63.20
13808;DHT22;40769;51.512;5.494;2023-06-26T14:27:57;30.70;63.20
13808;DHT22;40769;51.512;5.494;2023-06-26T14:30:23;30.50;63.40
13808;DHT22;40769;51.512;5.494;2023-06-26T14:32:49;30.20;63.80
13808;DHT22;40769;51.512;5.494;2023-06-26T14:35:15;29.90;64.30
13808;DHT22;40769;51.512;5.494;2023-06-26T14:37:41;29.70;64.70
13808;DHT22;40769;51.512;5.494;2023-06-26T14:40:07;29.50;65.40
13808;DHT22;40769;51.512;5.494;2023-06-26T14:42:33;29.40;65.80
13808;DHT22;40769;51.512;5.494;2023-06-26T14:45:02;29.40;65.80
13808;DHT22;40769;51.512;5.494;2023-06-26T14:47:28;29.40;65.30
13808;DHT22;40769;51.512;5.494;2023-06-26T14:49:57;29.30;65.30
13808;DHT22;40769;51.512;5.494;2023-06-26T14:52:23;29.30;64.90
13808;DHT22;40769;51.512;5.494;2023-06-26T14:54:51;29.20;64.50
13808;DHT22;40769;51.512;5.494;2023-06-26T14:57:17;29.10;64.70
13808;DHT22;40769;51.512;5.494;2023-06-26T14:59:43;29.00;64.70
13808;DHT22;40769;51.512;5.494;2023-06-26T15:02:09;28.90;64.60
13808;DHT22;40769;51.512;5.494;2023-06-26T15:04:34;28.80;64.40
13808;DHT22;40769;51.512;5.494;2023-06-26T15:07:00;28.70;64.80
13808;DHT22;40769;51.512;5.494;2023-06-26T15:09:28;28.60;65.00
13808;DHT22;40769;51.512;5.494;2023-06-26T15:11:54;28.60;65.10
13808;DHT22;40769;51.512;5.494;2023-06-26T15:14:19;28.60;65.10
13808;DHT22;40769;51.512;5.494;2023-06-26T15:16:49;28.60;64.70
13808;DHT22;40769;51.512;5.494;2023-06-26T15:19:15;28.50;63.50
13808;DHT22;40769;51.512;5.494;2023-06-26T15:21:40;27.70;63.90
13808;DHT22;40769;51.512;5.494;2023-06-26T15:24:06;28.20;64.00
13808;DHT22;40769;51.512;5.494;2023-06-26T15:26:32;27.90;64.40
13808;DHT22;40769;51.512;5.494;2023-06-26T15:29:02;27.80;64.80
13808;DHT22;40769;51.512;5.494;2023-06-26T15:31:31;27.60;65.20
13808;DHT22;40769;51.512;5.494;2023-06-26T15:33:56;27.50;65.80
13808;DHT22;40769;51.512;5.494;2023-06-26T15:36:22;27.40;66.00
13808;DHT22;40769;51.512;5.494;2023-06-26T15:38:48;27.30;66.30
13808;DHT22;40769;51.512;5.494;2023-06-26T15:41:17;27.20;66.60
13808;DHT22;40769;51.512;5.494;2023-06-26T15:43:42;27.10;66.40